createdAt,value
2023-01-02T00:01:57.797Z,5.15
2023-01-02T00:07:00.916Z,5.38
2023-01-02T00:12:04.996Z,3.97
2023-01-02T00:17:10.457Z,4.47
2023-01-02T00:22:13.267Z,4.80
2023-01-02T00:27:16.635Z,4.72
2023-01-02T00:32:20.664Z,4.90
2023-01-02T00:37:23.344Z,4.35
2023-01-02T00:42:26.060Z,4.68
2023-01-02T00:47:30.102Z,5.00
2023-01-02T00:52:32.742Z,4.35
2023-01-02T00:57:35.659Z,4.30
2023-01-02T01:02:39.913Z,4.53
2023-01-02T01:07:42.669Z,4.88
2023-01-02T01:12:45.402Z,4.57
2023-01-02T01:17:49.415Z,4.97
2023-01-02T01:22:52.152Z,4.20
2023-01-02T01:27:55.159Z,4.47
2023-01-02T01:32:59.246Z,4.40
2023-01-02T01:38:01.964Z,4.68
2023-01-02T01:43:04.704Z,4.53
2023-01-02T01:48:15.774Z,5.20
2023-01-02T01:53:21.863Z,4.63
2023-01-02T01:58:29.583Z,5.20
2023-01-02T02:03:35.778Z,5.20
2023-01-02T02:08:45.229Z,5.55
2023-01-02T02:13:49.016Z,5.03
2023-01-02T02:19:23.418Z,4.43
2023-01-02T02:24:44.466Z,4.88
2023-01-02T02:30:17.040Z,4.72
2023-01-02T02:35:29.691Z,4.93
2023-01-02T02:40:42.489Z,5.07
2023-01-02T02:45:55.044Z,5.13
2023-01-02T02:51:01.742Z,4.63
2023-01-02T02:56:08.632Z,4.97
2023-01-02T03:01:16.531Z,4.38
2023-01-02T03:06:32.840Z,4.65
2023-01-02T03:11:48.040Z,4.30
2023-01-02T03:16:58.896Z,4.28
2023-01-02T03:22:06.477Z,4.40
2023-01-02T03:27:12.484Z,4.10
2023-01-02T03:32:23.075Z,4.88
2023-01-02T03:37:31.269Z,4.63
2023-01-02T03:42:38.069Z,4.70
2023-01-02T03:47:48.146Z,4.90
2023-01-02T03:52:51.446Z,4.70
2023-01-02T03:58:02.293Z,5.03
2023-01-02T04:03:11.250Z,4.75
2023-01-02T04:08:21.987Z,4.97
2023-01-02T04:13:29.973Z,5.30
2023-01-02T04:18:46.234Z,5.15
2023-01-02T04:23:53.071Z,5.35
2023-01-02T04:28:55.994Z,5.18
2023-01-02T04:34:02.710Z,4.63
2023-01-02T04:39:05.467Z,4.80
2023-01-02T04:44:08.433Z,4.47
2023-01-02T04:49:12.467Z,5.15
2023-01-02T04:54:15.305Z,4.82
2023-01-02T04:59:18.001Z,5.07
2023-01-02T05:04:22.175Z,4.90
2023-01-02T05:09:24.844Z,6.18
2023-01-02T05:14:27.608Z,5.35
2023-01-02T05:19:31.611Z,5.78
2023-01-02T05:24:34.411Z,5.22
2023-01-02T05:29:37.112Z,5.93
2023-01-02T05:34:41.131Z,6.28
2023-01-02T05:39:43.809Z,5.95
2023-01-02T05:44:46.734Z,6.30
2023-01-02T05:49:50.748Z,6.07
2023-01-02T05:54:53.414Z,5.72
2023-01-02T05:59:56.083Z,5.97
2023-01-02T06:05:00.045Z,5.90
2023-01-02T06:10:02.747Z,5.88
2023-01-02T06:15:06.018Z,5.10
2023-01-02T06:20:11.361Z,5.40
2023-01-02T06:25:14.086Z,6.28
2023-01-02T06:30:16.794Z,6.75
2023-01-02T06:35:20.765Z,7.05
2023-01-02T06:40:23.474Z,6.65
2023-01-02T06:45:26.221Z,6.80
2023-01-02T06:50:34.818Z,6.80
2023-01-02T06:55:37.870Z,7.37
2023-01-02T07:00:40.845Z,8.20
2023-01-02T07:05:45.168Z,9.27
2023-01-02T07:10:52.703Z,8.17
2023-01-02T07:15:55.855Z,8.03
2023-01-02T07:21:00.117Z,8.70
2023-01-02T07:26:04.492Z,8.63
2023-01-02T07:31:09.782Z,8.33
2023-01-02T07:36:16.673Z,8.67
2023-01-02T07:41:22.563Z,8.67
2023-01-02T07:46:25.933Z,8.57
2023-01-02T07:51:30.105Z,7.37
2023-01-02T07:56:32.772Z,7.83
2023-01-02T08:01:35.656Z,7.40
2023-01-02T08:06:42.018Z,8.23
2023-01-02T08:11:44.708Z,7.40
2023-01-02T08:16:47.504Z,7.73
2023-01-02T08:21:57.078Z,7.03
2023-01-02T08:26:59.758Z,7.00
2023-01-02T08:32:02.405Z,8.10
2023-01-02T08:37:06.438Z,7.17
2023-01-02T08:42:09.330Z,7.90
2023-01-02T08:47:12.198Z,7.07
2023-01-02T08:52:16.236Z,7.30
2023-01-02T08:57:18.917Z,7.30
2023-01-02T09:02:21.684Z,7.63
2023-01-02T09:07:25.898Z,7.07
2023-01-02T09:12:28.660Z,6.90
2023-01-02T09:17:31.387Z,7.70
2023-01-02T09:22:58.832Z,6.63
2023-01-02T09:34:34.009Z,6.20
2023-01-02T09:41:38.352Z,5.93
2023-01-02T09:47:20.755Z,6.27
2023-01-02T09:53:30.741Z,6.47
2023-01-02T10:11:46.333Z,6.40
2023-01-02T10:17:36.173Z,6.33
2023-01-02T10:23:36.504Z,6.00
2023-01-02T10:35:49.979Z,5.93
2023-01-02T10:41:39.465Z,6.47
2023-01-02T10:47:40.166Z,6.13
2023-01-02T10:53:18.947Z,5.77
2023-01-02T10:58:26.398Z,6.10
2023-01-02T11:10:01.679Z,6.17
2023-01-02T11:28:29.820Z,6.10
2023-01-02T11:34:04.325Z,5.80
2023-01-02T11:53:04.881Z,5.75
2023-01-02T12:16:13.163Z,5.10
2023-01-02T12:28:04.441Z,5.35
2023-01-02T12:33:49.162Z,5.38
2023-01-02T12:40:02.950Z,5.93
2023-01-02T12:45:55.558Z,5.53
2023-01-02T12:51:19.226Z,5.22
2023-01-02T12:57:08.266Z,5.57
2023-01-02T13:02:56.050Z,5.32
2023-01-02T13:08:25.596Z,5.38
2023-01-02T13:14:29.463Z,5.55
2023-01-02T13:32:33.421Z,4.90
2023-01-02T13:44:51.048Z,5.70
2023-01-02T13:57:00.750Z,5.43
2023-01-02T14:03:12.549Z,5.30
2023-01-02T14:15:45.031Z,5.75
2023-01-02T14:33:47.926Z,5.10
2023-01-02T14:39:59.445Z,6.47
2023-01-02T14:45:54.896Z,6.40
2023-01-02T14:52:06.670Z,5.53
2023-01-02T15:04:58.108Z,5.93
2023-01-02T15:11:08.418Z,5.80
2023-01-02T15:55:18.347Z,6.50
2023-01-02T16:00:34.942Z,6.50
2023-01-02T16:05:49.605Z,6.20
2023-01-02T16:11:01.208Z,6.53
2023-01-02T16:16:16.190Z,6.45
2023-01-02T16:21:19.949Z,7.13
2023-01-02T16:26:27.941Z,6.50
2023-01-02T16:31:52.141Z,7.40
2023-01-02T16:37:26.647Z,6.97
2023-01-02T16:42:37.441Z,7.35
2023-01-02T16:47:44.985Z,8.20
2023-01-02T16:52:48.064Z,8.03
2023-01-02T16:57:52.055Z,8.27
2023-01-02T17:02:56.134Z,8.82
2023-01-02T17:07:58.922Z,7.07
2023-01-02T17:13:01.715Z,7.05
2023-01-02T17:18:06.006Z,10.52
2023-01-02T17:23:08.898Z,10.93
2023-01-02T17:28:12.040Z,8.30
2023-01-02T17:33:16.609Z,8.73
2023-01-02T17:38:19.697Z,8.65
2023-01-02T17:43:22.375Z,9.50
2023-01-02T17:48:26.650Z,8.95
2023-01-02T17:53:29.477Z,9.13
2023-01-02T17:58:32.179Z,8.93
2023-01-02T18:03:36.326Z,9.20
2023-01-02T18:08:39.154Z,10.48
2023-01-02T18:13:43.958Z,5.75
2023-01-02T18:18:48.876Z,5.10
2023-01-02T18:23:56.983Z,4.18
2023-01-02T18:29:09.414Z,4.22
2023-01-02T18:34:48.734Z,4.13
2023-01-02T18:39:44.956Z,3.15
2023-01-02T18:44:48.347Z,2.55
2023-01-02T18:49:53.489Z,2.40
2023-01-02T18:55:02.835Z,2.05
2023-01-02T19:00:22.568Z,2.20
2023-01-02T19:05:33.468Z,2.15
2023-01-02T19:10:41.287Z,2.40
2023-01-02T19:15:46.317Z,2.47
2023-01-02T19:21:02.719Z,2.22
2023-01-02T19:26:18.101Z,2.08
2023-01-02T19:31:20.973Z,2.42
2023-01-02T19:36:33.572Z,2.60
2023-01-02T19:41:53.868Z,2.40
2023-01-02T19:46:56.543Z,2.72
2023-01-02T19:52:00.569Z,2.90
2023-01-02T19:57:03.246Z,2.70
2023-01-02T20:02:06.593Z,2.20
2023-01-02T20:07:11.229Z,2.10
2023-01-02T20:12:34.395Z,2.50
2023-01-02T20:17:38.546Z,2.85
2023-01-02T20:22:43.485Z,2.60
2023-01-02T20:27:46.289Z,2.47
2023-01-02T20:32:49.012Z,2.72
2023-01-02T20:37:53.056Z,2.95
2023-01-02T20:42:55.803Z,1.92
2023-01-02T20:47:58.503Z,1.30
2023-01-02T20:53:02.499Z,1.20
2023-01-02T20:58:05.249Z,1.13
2023-01-02T21:03:08.135Z,1.20
2023-01-02T21:08:12.633Z,1.07
2023-01-02T21:13:15.293Z,1.30
2023-01-02T21:18:20.174Z,1.40
2023-01-02T21:23:25.811Z,1.40
2023-01-02T21:28:28.679Z,1.60
2023-01-02T21:33:31.945Z,0.97
2023-01-02T21:38:36.425Z,1.60
2023-01-02T21:43:39.141Z,1.37
2023-01-02T21:48:50.417Z,1.63
2023-01-02T21:53:54.403Z,1.37
2023-01-02T21:58:57.677Z,1.20
2023-01-02T22:04:00.405Z,1.43
2023-01-02T22:09:05.498Z,1.20
2023-01-02T22:14:08.217Z,1.30
2023-01-02T22:19:10.963Z,1.33
2023-01-02T22:24:15.365Z,1.50
2023-01-02T22:29:20.489Z,1.43
2023-01-02T22:34:24.889Z,1.30
2023-01-02T22:39:29.191Z,1.27
2023-01-02T22:44:32.141Z,1.20
2023-01-02T22:49:38.359Z,0.80
2023-01-02T22:54:42.369Z,0.90
2023-01-02T22:59:45.263Z,1.00
2023-01-02T23:04:48.931Z,0.87
2023-01-02T23:09:52.893Z,1.10
2023-01-02T23:14:55.552Z,0.90
2023-01-02T23:19:58.261Z,1.00
2023-01-02T23:25:04.558Z,1.00
2023-01-02T23:30:08.296Z,1.10
2023-01-02T23:35:11.616Z,1.10
2023-01-02T23:40:15.753Z,1.10
2023-01-02T23:45:18.498Z,1.03
2023-01-02T23:50:21.186Z,1.10
2023-01-02T23:55:25.196Z,2.10
